createdAt,value
2019-06-27T00:02:06.805Z,25.67
2019-06-27T00:04:39.112Z,25.66
2019-06-27T00:07:10.183Z,25.62
2019-06-27T00:09:43.204Z,25.61
2019-06-27T00:12:14.324Z,25.57
2019-06-27T00:14:46.148Z,25.55
2019-06-27T00:17:18.290Z,25.49
2019-06-27T00:19:50.159Z,25.43
2019-06-27T00:22:23.210Z,25.39
2019-06-27T00:24:56.159Z,25.36
2019-06-27T00:27:29.277Z,25.30
2019-06-27T00:30:02.351Z,25.28
2019-06-27T00:32:36.382Z,25.20
2019-06-27T00:35:08.461Z,25.16
2019-06-27T00:37:41.373Z,25.14
2019-06-27T00:40:17.523Z,25.12
2019-06-27T00:42:50.251Z,25.08
2019-06-27T00:45:23.513Z,25.03
2019-06-27T00:47:56.479Z,24.98
2019-06-27T00:50:29.438Z,25.00
2019-06-27T00:53:02.621Z,25.03
2019-06-27T00:55:35.563Z,24.97
2019-06-27T00:58:08.458Z,24.99
2019-06-27T01:00:41.369Z,24.94
2019-06-27T01:03:14.420Z,24.90
2019-06-27T01:05:46.518Z,24.89
2019-06-27T01:08:19.442Z,24.86
2019-06-27T01:10:50.238Z,24.86
2019-06-27T01:13:21.632Z,24.86
2019-06-27T01:15:54.611Z,24.87
2019-06-27T01:18:26.513Z,24.97
2019-06-27T01:20:59.450Z,24.93
2019-06-27T01:23:32.662Z,24.92
2019-06-27T01:26:05.529Z,24.92
2019-06-27T01:28:37.506Z,24.92
2019-06-27T01:31:08.650Z,24.89
2019-06-27T01:33:42.504Z,24.92
2019-06-27T01:36:14.632Z,24.92
2019-06-27T01:38:47.638Z,24.90
2019-06-27T01:41:20.582Z,24.91
2019-06-27T01:43:52.535Z,24.84
2019-06-27T01:46:25.732Z,24.82
2019-06-27T01:48:57.456Z,24.82
2019-06-27T01:51:29.685Z,24.81
2019-06-27T01:54:02.728Z,24.83
2019-06-27T01:56:33.696Z,24.83
2019-06-27T01:59:04.798Z,24.86
2019-06-27T02:01:37.824Z,24.86
2019-06-27T02:04:08.475Z,24.88
2019-06-27T02:06:38.825Z,24.87
2019-06-27T02:09:11.819Z,24.83
2019-06-27T02:11:43.805Z,24.80
2019-06-27T02:14:14.837Z,24.77
2019-06-27T02:16:46.880Z,24.76
2019-06-27T02:19:17.903Z,24.83
2019-06-27T02:21:48.815Z,24.82
2019-06-27T02:24:19.806Z,24.76
2019-06-27T02:26:50.466Z,24.78
2019-06-27T02:29:22.888Z,24.77
2019-06-27T02:31:53.996Z,24.75
2019-06-27T02:34:26.939Z,24.72
2019-06-27T02:36:59.905Z,24.74
2019-06-27T02:39:31.994Z,24.77
2019-06-27T02:42:02.904Z,24.78
2019-06-27T02:44:35.994Z,24.78
2019-06-27T02:47:08.973Z,24.79
2019-06-27T02:49:40.952Z,24.79
2019-06-27T02:52:12.216Z,24.85
2019-06-27T02:54:43.952Z,24.91
2019-06-27T02:57:14.994Z,24.97
2019-06-27T02:59:47.079Z,25.28
2019-06-27T03:02:18.235Z,25.39
2019-06-27T03:04:50.551Z,25.44
2019-06-27T03:07:21.086Z,25.60
2019-06-27T03:09:51.608Z,25.98
2019-06-27T03:12:24.111Z,26.61
2019-06-27T03:14:57.119Z,26.68
2019-06-27T03:17:29.456Z,26.88
2019-06-27T03:20:00.230Z,27.28
2019-06-27T03:22:33.187Z,27.51
2019-06-27T03:25:06.381Z,27.40
2019-06-27T03:27:38.142Z,27.46
2019-06-27T03:30:09.449Z,27.82
2019-06-27T03:32:42.200Z,28.14
2019-06-27T03:35:14.288Z,28.28
2019-06-27T03:37:45.317Z,28.33
2019-06-27T03:40:18.399Z,28.32
2019-06-27T03:42:49.222Z,28.27
2019-06-27T03:45:21.216Z,28.27
2019-06-27T03:47:54.235Z,28.33
2019-06-27T03:50:27.268Z,28.32
2019-06-27T03:53:00.518Z,28.41
2019-06-27T03:55:33.426Z,28.44
2019-06-27T03:58:05.347Z,28.60
2019-06-27T04:00:37.369Z,28.75
2019-06-27T04:03:09.377Z,28.78
2019-06-27T04:05:42.413Z,28.83
2019-06-27T04:08:13.579Z,28.91
2019-06-27T04:10:45.449Z,28.95
2019-06-27T04:13:18.520Z,28.95
2019-06-27T04:15:49.455Z,28.97
2019-06-27T04:18:22.459Z,28.89
2019-06-27T04:20:54.508Z,28.84
2019-06-27T04:23:27.421Z,28.90
2019-06-27T04:26:00.368Z,28.93
2019-06-27T04:28:33.649Z,28.90
2019-06-27T04:31:06.672Z,28.94
2019-06-27T04:33:39.570Z,29.06
2019-06-27T04:36:12.461Z,29.02
2019-06-27T04:38:45.708Z,29.09
2019-06-27T04:41:16.515Z,28.95
2019-06-27T04:43:48.663Z,28.91
2019-06-27T04:46:21.503Z,29.01
2019-06-27T04:48:54.624Z,28.98
2019-06-27T04:51:26.069Z,29.03
2019-06-27T04:53:56.723Z,29.07
2019-06-27T04:56:27.524Z,29.09
2019-06-27T04:58:59.709Z,29.09
2019-06-27T05:01:31.728Z,29.13
2019-06-27T05:04:02.707Z,29.21
2019-06-27T05:06:35.745Z,29.27
2019-06-27T05:09:06.629Z,29.23
2019-06-27T05:11:38.711Z,29.39
2019-06-27T05:14:10.807Z,29.32
2019-06-27T05:16:43.832Z,29.32
2019-06-27T05:19:14.988Z,29.29
2019-06-27T05:21:45.839Z,29.42
2019-06-27T05:24:17.313Z,29.42
2019-06-27T05:26:48.850Z,29.38
2019-06-27T05:29:19.953Z,29.48
2019-06-27T05:31:50.795Z,29.64
2019-06-27T05:34:21.910Z,29.70
2019-06-27T05:36:53.518Z,29.66
2019-06-27T05:39:23.942Z,29.78
2019-06-27T05:41:56.997Z,29.86
2019-06-27T05:44:28.983Z,29.89
2019-06-27T05:46:59.937Z,29.79
2019-06-27T05:49:31.826Z,29.84
2019-06-27T05:52:04.902Z,29.91
2019-06-27T05:54:36.300Z,29.90
2019-06-27T05:57:09.067Z,29.93
2019-06-27T05:59:42.064Z,30.03
2019-06-27T06:02:14.608Z,30.07
2019-06-27T06:04:45.990Z,30.25
2019-06-27T06:07:18.066Z,30.28
2019-06-27T06:09:50.042Z,30.38
2019-06-27T06:12:21.921Z,30.31
2019-06-27T06:14:54.523Z,30.35
2019-06-27T06:17:27.067Z,30.38
2019-06-27T06:20:01.251Z,30.38
2019-06-27T06:22:34.709Z,30.54
2019-06-27T06:25:06.565Z,30.48
2019-06-27T06:27:39.398Z,30.70
2019-06-27T06:30:13.935Z,30.55
2019-06-27T06:32:46.370Z,30.51
2019-06-27T06:35:18.262Z,30.68
2019-06-27T06:37:50.190Z,30.71
2019-06-27T06:40:23.321Z,30.64
2019-06-27T06:42:58.068Z,30.71
2019-06-27T06:45:27.172Z,30.74
2019-06-27T06:47:59.193Z,30.77
2019-06-27T06:50:30.219Z,30.83
2019-06-27T06:53:03.242Z,30.60
2019-06-27T06:55:36.224Z,30.66
2019-06-27T06:58:09.239Z,30.74
2019-06-27T07:00:59.926Z,30.73
2019-06-27T07:03:18.265Z,30.77
2019-06-27T07:05:50.854Z,30.73
2019-06-27T07:08:21.377Z,30.69
2019-06-27T07:10:51.810Z,30.66
2019-06-27T07:13:24.573Z,30.73
2019-06-27T07:15:57.453Z,30.75
2019-06-27T07:18:30.438Z,30.84
2019-06-27T07:21:03.633Z,30.89
2019-06-27T07:23:36.431Z,30.72
2019-06-27T07:26:09.398Z,30.57
2019-06-27T07:28:42.454Z,30.59
2019-06-27T07:31:18.252Z,30.44
2019-06-27T07:33:47.631Z,30.63
2019-06-27T07:36:19.515Z,30.86
2019-06-27T07:38:50.529Z,30.70
2019-06-27T07:41:21.380Z,30.74
2019-06-27T07:43:51.870Z,30.70
2019-06-27T07:46:25.966Z,30.63
2019-06-27T07:48:57.473Z,30.67
2019-06-27T07:51:28.503Z,30.41
2019-06-27T07:54:00.898Z,30.63
2019-06-27T07:56:31.569Z,30.61
2019-06-27T07:59:03.579Z,30.42
2019-06-27T08:01:36.134Z,30.50
2019-06-27T08:04:06.628Z,30.55
2019-06-27T08:06:37.632Z,30.70
2019-06-27T08:09:10.538Z,30.90
2019-06-27T08:11:42.687Z,31.02
2019-06-27T08:14:13.783Z,31.22
2019-06-27T08:16:45.703Z,31.27
2019-06-27T08:19:18.697Z,31.28
2019-06-27T08:21:51.026Z,31.35
2019-06-27T08:24:24.431Z,31.37
2019-06-27T08:26:57.749Z,31.43
2019-06-27T08:29:28.823Z,31.40
2019-06-27T08:32:00.789Z,30.98
2019-06-27T08:34:32.788Z,31.14
2019-06-27T08:37:03.965Z,31.31
2019-06-27T08:39:36.816Z,31.38
2019-06-27T08:42:09.853Z,31.38
2019-06-27T08:44:40.832Z,31.69
2019-06-27T08:47:13.750Z,31.78
2019-06-27T08:49:44.278Z,31.71
2019-06-27T08:52:15.782Z,31.69
2019-06-27T08:54:48.957Z,31.93
2019-06-27T08:57:21.937Z,32.04
2019-06-27T08:59:54.888Z,32.16
2019-06-27T09:02:25.957Z,31.96
2019-06-27T09:04:57.890Z,32.15
2019-06-27T09:07:28.867Z,32.04
2019-06-27T09:10:01.876Z,31.96
2019-06-27T09:12:34.764Z,32.15
2019-06-27T09:15:05.368Z,32.31
2019-06-27T09:17:37.071Z,32.47
2019-06-27T09:20:10.636Z,32.52
2019-06-27T09:22:42.122Z,32.24
2019-06-27T09:25:13.700Z,32.53
2019-06-27T09:27:44.185Z,32.75
2019-06-27T09:30:17.689Z,32.74
2019-06-27T09:32:49.053Z,32.91
2019-06-27T09:35:19.634Z,32.63
2019-06-27T09:37:51.142Z,32.64
2019-06-27T09:40:26.747Z,32.76
2019-06-27T09:42:57.665Z,32.62
2019-06-27T09:45:28.211Z,32.57
2019-06-27T09:48:00.136Z,32.59
2019-06-27T09:50:34.267Z,32.82
2019-06-27T09:53:06.198Z,32.85
2019-06-27T09:55:39.121Z,33.03
2019-06-27T09:58:12.156Z,33.30
2019-06-27T10:00:45.094Z,33.09
2019-06-27T10:03:18.114Z,33.30
2019-06-27T10:05:51.159Z,33.10
2019-06-27T10:08:24.226Z,33.03
2019-06-27T10:10:57.568Z,33.28
2019-06-27T10:13:29.245Z,33.32
2019-06-27T10:16:00.271Z,33.12
2019-06-27T10:18:33.396Z,33.30
2019-06-27T10:21:06.396Z,33.53
2019-06-27T10:23:39.397Z,33.53
2019-06-27T10:26:11.311Z,33.61
2019-06-27T10:28:42.375Z,33.43
2019-06-27T10:31:15.367Z,33.36
2019-06-27T10:33:47.449Z,33.32
2019-06-27T10:36:18.382Z,33.68
2019-06-27T10:38:50.465Z,33.93
2019-06-27T10:41:21.744Z,34.14
2019-06-27T10:43:52.151Z,34.08
2019-06-27T10:46:24.495Z,33.95
2019-06-27T10:48:57.481Z,33.67
2019-06-27T10:51:30.520Z,33.52
2019-06-27T10:54:03.556Z,33.60
2019-06-27T10:56:39.901Z,33.63
2019-06-27T10:59:09.525Z,33.60
2019-06-27T11:01:40.494Z,33.93
2019-06-27T11:04:12.665Z,34.11
2019-06-27T11:06:44.579Z,33.86
2019-06-27T11:09:15.606Z,33.71
2019-06-27T11:11:46.630Z,33.76
2019-06-27T11:14:19.574Z,33.68
2019-06-27T11:16:51.764Z,33.81
2019-06-27T11:19:24.610Z,34.22
2019-06-27T11:21:57.639Z,34.32
2019-06-27T11:24:28.046Z,34.58
2019-06-27T11:27:00.594Z,34.47
2019-06-27T11:29:32.783Z,34.73
2019-06-27T11:32:03.679Z,34.60
2019-06-27T11:34:35.804Z,34.17
2019-06-27T11:37:06.696Z,34.25
2019-06-27T11:39:39.648Z,34.40
2019-06-27T11:42:10.659Z,34.57
2019-06-27T11:44:41.124Z,34.42
2019-06-27T11:47:12.752Z,34.51
2019-06-27T11:49:45.837Z,34.70
2019-06-27T11:52:18.815Z,34.95
2019-06-27T11:54:51.287Z,34.55
2019-06-27T11:57:21.820Z,34.80
2019-06-27T11:59:52.240Z,35.10
2019-06-27T12:02:22.925Z,35.24
2019-06-27T12:04:54.793Z,35.11
2019-06-27T12:07:29.591Z,34.83
2019-06-27T12:10:00.865Z,34.84
2019-06-27T12:12:33.806Z,34.85
2019-06-27T12:15:07.225Z,35.11
2019-06-27T12:17:38.035Z,35.14
2019-06-27T12:20:09.944Z,35.43
2019-06-27T12:22:41.903Z,35.20
2019-06-27T12:25:14.142Z,35.57
2019-06-27T12:27:46.156Z,35.28
2019-06-27T12:30:17.515Z,35.39
2019-06-27T12:32:52.395Z,35.20
2019-06-27T12:35:23.045Z,35.37
2019-06-27T12:37:55.103Z,35.17
2019-06-27T12:40:28.082Z,35.03
2019-06-27T12:43:01.103Z,35.03
2019-06-27T12:45:32.091Z,35.53
2019-06-27T12:48:07.034Z,36.61
2019-06-27T12:50:37.176Z,36.61
2019-06-27T12:53:10.153Z,36.38
2019-06-27T12:55:43.053Z,36.10
2019-06-27T12:58:14.157Z,36.27
2019-06-27T13:00:45.270Z,36.32
2019-06-27T13:03:16.062Z,36.31
2019-06-27T13:05:48.121Z,36.75
2019-06-27T13:08:19.092Z,36.75
2019-06-27T13:10:50.259Z,36.91
2019-06-27T13:13:22.271Z,36.27
2019-06-27T13:15:55.127Z,35.70
2019-06-27T13:18:27.117Z,35.79
2019-06-27T13:20:58.835Z,36.23
2019-06-27T13:23:31.169Z,35.83
2019-06-27T13:26:04.300Z,35.62
2019-06-27T13:28:35.198Z,36.35
2019-06-27T13:31:07.339Z,36.31
2019-06-27T13:33:38.329Z,36.46
2019-06-27T13:36:10.248Z,36.55
2019-06-27T13:38:41.409Z,36.24
2019-06-27T13:41:14.360Z,35.38
2019-06-27T13:43:49.217Z,34.63
2019-06-27T13:46:19.415Z,34.27
2019-06-27T13:48:51.494Z,34.03
2019-06-27T13:51:22.377Z,34.17
2019-06-27T13:53:57.070Z,34.14
2019-06-27T13:56:28.476Z,33.73
2019-06-27T13:59:01.476Z,33.63
2019-06-27T14:01:34.467Z,33.38
2019-06-27T14:04:04.882Z,33.21
2019-06-27T14:06:41.125Z,33.31
2019-06-27T14:09:22.301Z,33.65
2019-06-27T14:11:43.537Z,34.04
2019-06-27T14:14:18.226Z,34.50
2019-06-27T14:16:49.512Z,35.20
2019-06-27T14:19:23.779Z,35.53
2019-06-27T14:21:58.766Z,36.07
2019-06-27T14:24:28.437Z,36.06
2019-06-27T14:27:04.611Z,36.31
2019-06-27T14:29:33.694Z,36.59
2019-06-27T14:32:06.681Z,36.46
2019-06-27T14:34:38.543Z,36.35
2019-06-27T14:37:09.763Z,36.83
2019-06-27T14:39:41.570Z,36.23
2019-06-27T14:42:12.682Z,36.13
2019-06-27T14:44:44.712Z,36.06
2019-06-27T14:47:18.001Z,36.54
2019-06-27T14:49:49.665Z,36.18
2019-06-27T14:52:21.740Z,35.33
2019-06-27T14:54:54.073Z,35.22
2019-06-27T14:57:25.768Z,35.52
2019-06-27T14:59:57.760Z,35.67
2019-06-27T15:02:30.797Z,35.52
2019-06-27T15:05:03.859Z,35.52
2019-06-27T15:07:34.838Z,36.16
2019-06-27T15:10:06.671Z,36.35
2019-06-27T15:12:37.835Z,37.80
2019-06-27T15:15:10.213Z,37.88
2019-06-27T15:17:42.730Z,38.49
2019-06-27T15:20:13.777Z,38.48
2019-06-27T15:22:44.158Z,38.29
2019-06-27T15:25:16.987Z,39.02
2019-06-27T15:27:48.930Z,38.13
2019-06-27T15:30:20.880Z,37.10
2019-06-27T15:32:51.684Z,37.47
2019-06-27T15:35:24.812Z,36.33
2019-06-27T15:37:57.908Z,35.97
2019-06-27T15:40:31.015Z,37.27
2019-06-27T15:43:04.013Z,36.91
2019-06-27T15:45:36.864Z,36.41
2019-06-27T15:48:11.944Z,37.17
2019-06-27T15:50:43.057Z,35.79
2019-06-27T15:53:15.951Z,35.05
2019-06-27T15:55:47.928Z,34.72
2019-06-27T15:58:19.129Z,35.97
2019-06-27T16:00:50.153Z,35.99
2019-06-27T16:03:22.060Z,34.82
2019-06-27T16:06:08.235Z,34.82
2019-06-27T16:08:27.181Z,33.97
2019-06-27T16:10:58.113Z,33.62
2019-06-27T16:13:32.813Z,33.72
2019-06-27T16:16:04.026Z,35.44
2019-06-27T16:18:36.083Z,34.53
2019-06-27T16:21:07.455Z,33.60
2019-06-27T16:23:40.126Z,33.13
2019-06-27T16:26:13.046Z,33.87
2019-06-27T16:28:46.312Z,35.87
2019-06-27T16:31:18.159Z,36.65
2019-06-27T16:33:51.267Z,37.10
2019-06-27T16:36:25.906Z,37.98
2019-06-27T16:38:55.288Z,38.44
2019-06-27T16:41:26.305Z,37.22
2019-06-27T16:43:57.255Z,35.37
2019-06-27T16:46:28.213Z,34.99
2019-06-27T16:49:01.307Z,34.37
2019-06-27T16:51:34.237Z,35.02
2019-06-27T16:54:05.339Z,35.62
2019-06-27T16:56:36.257Z,34.87
2019-06-27T16:59:12.907Z,34.94
2019-06-27T17:01:51.092Z,35.51
2019-06-27T17:04:23.443Z,35.70
2019-06-27T17:06:55.335Z,35.70
2019-06-27T17:09:27.569Z,37.11
2019-06-27T17:11:58.320Z,36.59
2019-06-27T17:14:30.494Z,35.97
2019-06-27T17:17:01.528Z,36.44
2019-06-27T17:19:33.811Z,36.63
2019-06-27T17:22:04.508Z,36.52
2019-06-27T17:24:36.349Z,36.99
2019-06-27T17:27:07.413Z,37.25
2019-06-27T17:29:44.995Z,37.51
2019-06-27T17:32:16.434Z,36.79
2019-06-27T17:34:48.703Z,36.91
2019-06-27T17:37:21.514Z,37.32
2019-06-27T17:39:52.005Z,37.39
2019-06-27T17:42:23.619Z,38.16
2019-06-27T17:44:55.839Z,38.58
2019-06-27T17:47:28.567Z,38.04
2019-06-27T17:50:01.644Z,36.51
2019-06-27T17:52:32.572Z,35.28
2019-06-27T17:55:06.293Z,35.48
2019-06-27T17:57:37.677Z,35.06
2019-06-27T18:00:08.910Z,34.40
2019-06-27T18:02:41.582Z,34.38
2019-06-27T18:05:13.827Z,34.35
2019-06-27T18:07:44.733Z,33.49
2019-06-27T18:10:16.885Z,32.50
2019-06-27T18:12:49.733Z,31.78
2019-06-27T18:15:21.761Z,31.13
2019-06-27T18:17:52.198Z,30.73
2019-06-27T18:20:22.741Z,30.30
2019-06-27T18:22:55.837Z,29.92
2019-06-27T18:25:28.781Z,29.58
2019-06-27T18:28:01.879Z,29.34
2019-06-27T18:30:34.796Z,29.11
2019-06-27T18:33:06.808Z,28.99
2019-06-27T18:35:37.171Z,28.93
2019-06-27T18:38:07.698Z,28.74
2019-06-27T18:40:40.836Z,28.69
2019-06-27T18:43:19.185Z,28.54
2019-06-27T18:45:57.120Z,28.43
2019-06-27T18:48:35.142Z,28.23
2019-06-27T18:51:07.956Z,28.17
2019-06-27T18:53:40.893Z,28.15
2019-06-27T18:56:16.826Z,27.98
2019-06-27T18:58:49.951Z,27.83
2019-06-27T19:01:20.339Z,27.75
2019-06-27T19:03:51.987Z,27.61
2019-06-27T19:06:23.020Z,27.50
2019-06-27T19:08:55.951Z,27.38
2019-06-27T19:11:28.967Z,27.26
2019-06-27T19:14:02.070Z,27.14
2019-06-27T19:16:34.018Z,27.08
2019-06-27T19:19:08.938Z,26.99
2019-06-27T19:21:56.588Z,26.95
2019-06-27T19:24:44.205Z,26.86
2019-06-27T19:27:16.177Z,26.70
2019-06-27T19:29:46.996Z,26.67
2019-06-27T19:32:20.099Z,26.53
2019-06-27T19:34:51.068Z,26.53
2019-06-27T19:37:22.214Z,26.47
2019-06-27T19:39:52.664Z,26.38
2019-06-27T19:42:25.201Z,26.30
2019-06-27T19:44:58.077Z,26.29
2019-06-27T19:47:31.312Z,26.13
2019-06-27T19:50:04.330Z,25.94
2019-06-27T19:52:37.161Z,26.00
2019-06-27T19:55:10.102Z,26.01
2019-06-27T19:57:41.319Z,25.92
2019-06-27T20:00:14.564Z,25.87
2019-06-27T20:02:45.344Z,25.91
2019-06-27T20:05:16.369Z,25.91
2019-06-27T20:07:48.355Z,25.86
2019-06-27T20:10:19.319Z,25.90
2019-06-27T20:12:50.427Z,25.81
2019-06-27T20:15:22.355Z,25.82
2019-06-27T20:17:52.741Z,25.83
2019-06-27T20:20:23.340Z,25.71
2019-06-27T20:22:55.403Z,25.66
2019-06-27T20:25:28.283Z,25.69
2019-06-27T20:28:01.299Z,25.65
2019-06-27T20:30:33.870Z,25.60
2019-06-27T20:33:04.502Z,25.59
2019-06-27T20:35:35.452Z,25.59
2019-06-27T20:38:06.614Z,25.52
2019-06-27T20:40:37.431Z,25.51
2019-06-27T20:43:10.413Z,25.42
2019-06-27T20:45:43.404Z,25.39
2019-06-27T20:48:16.577Z,25.38
2019-06-27T20:50:47.511Z,25.33
2019-06-27T20:53:19.581Z,25.31
2019-06-27T20:55:52.186Z,25.19
2019-06-27T20:58:24.510Z,25.17
2019-06-27T21:00:55.476Z,25.17
2019-06-27T21:03:28.541Z,25.05
2019-06-27T21:06:01.647Z,25.07
2019-06-27T21:08:47.177Z,25.03
2019-06-27T21:11:07.543Z,24.92
2019-06-27T21:13:40.662Z,24.92
2019-06-27T21:16:11.607Z,24.82
2019-06-27T21:18:43.850Z,24.80
2019-06-27T21:21:14.367Z,24.75
2019-06-27T21:23:46.710Z,24.68
2019-06-27T21:26:19.614Z,24.63
2019-06-27T21:28:50.782Z,24.54
2019-06-27T21:31:21.864Z,24.52
2019-06-27T21:33:52.662Z,24.51
2019-06-27T21:36:23.830Z,24.45
2019-06-27T21:39:07.020Z,24.39
2019-06-27T21:41:29.731Z,24.32
2019-06-27T21:44:01.739Z,24.26
2019-06-27T21:46:33.795Z,24.21
2019-06-27T21:49:05.181Z,24.19
2019-06-27T21:51:35.855Z,24.09
2019-06-27T21:54:07.919Z,24.00
2019-06-27T21:56:39.317Z,24.01
2019-06-27T21:59:10.971Z,23.94
2019-06-27T22:01:41.919Z,23.92
2019-06-27T22:04:13.874Z,23.88
2019-06-27T22:06:45.785Z,23.88
2019-06-27T22:09:24.415Z,23.79
2019-06-27T22:11:50.384Z,23.79
2019-06-27T22:14:23.469Z,23.84
2019-06-27T22:16:56.061Z,23.75
2019-06-27T22:19:27.519Z,23.74
2019-06-27T22:21:59.031Z,23.73
2019-06-27T22:24:30.061Z,23.64
2019-06-27T22:27:01.933Z,23.56
2019-06-27T22:29:33.998Z,23.59
2019-06-27T22:32:05.054Z,23.59
2019-06-27T22:34:36.091Z,23.56
2019-06-27T22:37:08.370Z,23.54
2019-06-27T22:39:57.447Z,23.56
2019-06-27T22:42:46.643Z,23.51
2019-06-27T22:45:34.361Z,23.50
2019-06-27T22:48:13.179Z,23.46
2019-06-27T22:51:10.965Z,23.46
2019-06-27T22:54:07.071Z,23.41
2019-06-27T22:56:38.179Z,23.35
2019-06-27T22:59:11.058Z,23.28
2019-06-27T23:01:44.165Z,23.30
2019-06-27T23:04:17.118Z,23.19
2019-06-27T23:06:47.629Z,23.21
2019-06-27T23:09:20.243Z,23.13
2019-06-27T23:11:56.489Z,23.05
2019-06-27T23:14:27.467Z,22.93
2019-06-27T23:16:59.431Z,22.92
2019-06-27T23:19:31.211Z,22.86
2019-06-27T23:22:02.216Z,22.85
2019-06-27T23:24:34.343Z,22.82
2019-06-27T23:27:06.721Z,22.80
2019-06-27T23:29:38.228Z,22.72
2019-06-27T23:32:10.264Z,22.67
2019-06-27T23:34:40.701Z,22.62
2019-06-27T23:37:13.679Z,22.62
2019-06-27T23:39:44.494Z,22.52
2019-06-27T23:42:17.343Z,22.45
2019-06-27T23:44:49.284Z,22.38
2019-06-27T23:47:20.799Z,22.34
2019-06-27T23:49:52.351Z,22.26
2019-06-27T23:52:23.540Z,22.31
2019-06-27T23:54:56.489Z,22.31
2019-06-27T23:57:29.637Z,22.24
